Time;durP1;ratioP1;P1;durP2;ratioP2;P2;SDS_P1;SDS_P2;PMS_P1;PMS_P2;Temp;Humidity;BMP_temperature;BMP_pressure;BME280_temperature;BME280_humidity;BME280_pressure;Samples;Min_cycle;Max_cycle;Signal;HPM_P1;HPM_P2
2022/03/14 08:06:00;;;;;;;3.58;2.05;;;;;;;;;;13029920;22;20012;-84
2022/03/14 08:11:03;;;;;;;3.92;2.38;;;;;;;;;;12997116;22;20007;-82
2022/03/14 08:16:04;;;;;;;3.03;2.20;;;;;;;;;;13013849;22;20375;-83
2022/03/14 08:21:05;;;;;;;5.45;2.70;;;;;;;;;;12976907;22;20020;-85
2022/03/14 08:26:07;;;;;;;3.70;2.45;;;;;;;;;;12921495;23;20008;-86
2022/03/14 08:31:09;;;;;;;4.13;2.63;;;;;;;;;;12920805;23;20008;-83
2022/03/14 08:36:10;;;;;;;5.03;3.00;;;;;;;;;;12914283;23;20046;-86
2022/03/14 08:41:12;;;;;;;5.85;3.33;;;;;;;;;;12945627;23;20417;-84
2022/03/14 08:46:17;;;;;;;4.38;3.40;;;;;;;;;;12923377;23;20008;-85
2022/03/14 08:51:18;;;;;;;5.40;3.65;;;;;;;;;;12921850;23;20000;-85
2022/03/14 08:56:19;;;;;;;5.72;3.85;;;;;;;;;;12934336;22;20012;-84
2022/03/14 09:01:20;;;;;;;5.95;3.90;;;;;;;;;;12971484;22;20049;-86
2022/03/14 09:06:29;;;;;;;5.88;3.38;;;;;;;;;;12952629;22;20103;-84
2022/03/14 09:11:30;;;;;;;6.68;3.42;;;;;;;;;;12958475;23;20023;-84
2022/03/14 09:16:35;;;;;;;5.40;3.72;;;;;;;;;;12929302;23;20000;-85
2022/03/14 09:21:36;;;;;;;7.82;5.53;;;;;;;;;;12925470;23;20421;-85
2022/03/14 09:26:37;;;;;;;7.13;4.82;;;;;;;;;;12918547;23;20011;-84
2022/03/14 09:31:38;;;;;;;8.20;4.00;;;;;;;;;;12944846;23;20000;-85
2022/03/14 09:36:39;;;;;;;6.78;3.95;;;;;;;;;;12914796;23;20508;-84
2022/03/14 09:41:41;;;;;;;7.07;3.85;;;;;;;;;;12917499;23;20039;-82
2022/03/14 09:46:44;;;;;;;6.57;4.50;;;;;;;;;;12915349;23;20009;-83
2022/03/14 09:51:46;;;;;;;6.25;4.05;;;;;;;;;;12916315;23;20030;-85
2022/03/14 09:56:47;;;;;;;6.15;3.70;;;;;;;;;;12916831;23;20011;-83
2022/03/14 10:01:49;;;;;;;6.95;5.90;;;;;;;;;;12943799;23;20091;-83
2022/03/14 10:07:02;;;;;;;6.05;5.22;;;;;;;;;;12926553;23;20011;-84
2022/03/14 10:12:04;;;;;;;6.28;5.07;;;;;;;;;;12923276;23;20012;-84
2022/03/14 10:17:08;;;;;;;7.18;4.90;;;;;;;;;;12917225;23;20289;-84
2022/03/14 10:22:18;;;;;;;5.72;4.75;;;;;;;;;;12916323;23;20016;-84
2022/03/14 10:27:20;;;;;;;7.03;4.40;;;;;;;;;;12915229;23;20008;-84
2022/03/14 10:32:30;;;;;;;8.07;4.13;;;;;;;;;;12918697;23;20043;-84
2022/03/14 10:37:31;;;;;;;;;;;;;;;;;;12940297;23;20000;-84
2022/03/14 10:42:40;;;;;;;7.55;4.82;;;;;;;;;;12911999;23;19927;-83
2022/03/14 10:47:47;;;;;;;6.88;4.45;;;;;;;;;;12914529;23;20000;-82
2022/03/14 10:53:00;;;;;;;6.70;4.80;;;;;;;;;;12914575;23;20015;-83
2022/03/14 10:58:13;;;;;;;7.40;4.57;;;;;;;;;;12914888;23;20024;-83
2022/03/14 11:03:22;;;;;;;6.13;4.10;;;;;;;;;;12916546;23;20008;-83
2022/03/14 11:08:26;;;;;;;5.90;4.15;;;;;;;;;;12916427;23;20004;-84
2022/03/14 11:13:40;;;;;;;6.35;5.60;;;;;;;;;;12921094;23;20088;-84
2022/03/14 11:19:13;;;;;;;5.72;3.75;;;;;;;;;;12881178;23;20027;-84
2022/03/14 11:24:43;;;;;;;66.03;58.90;;;;;;;;;;12917515;23;20008;-84
2022/03/14 11:30:08;;;;;;;6.45;4.47;;;;;;;;;;12942315;23;20016;-85
2022/03/14 11:35:10;;;;;;;10.07;5.75;;;;;;;;;;12914388;23;20142;-83
2022/03/14 11:40:13;;;;;;;8.20;6.55;;;;;;;;;;12914731;23;20004;-84
2022/03/14 11:45:53;;;;;;;8.77;7.15;;;;;;;;;;12941800;23;20384;-84
2022/03/14 11:51:11;;;;;;;5.68;4.00;;;;;;;;;;12951466;23;20008;-83
2022/03/14 11:56:34;;;;;;;8.77;7.00;;;;;;;;;;12947027;23;20012;-84
2022/03/14 12:02:00;;;;;;;6.20;4.32;;;;;;;;;;12970971;22;20012;-84
2022/03/14 12:07:08;;;;;;;5.22;4.15;;;;;;;;;;12925792;23;20023;-84
2022/03/14 12:12:28;;;;;;;4.43;3.55;;;;;;;;;;12921035;23;20012;-84
2022/03/14 12:17:36;;;;;;;7.37;3.00;;;;;;;;;;12918881;23;20008;-84
2022/03/14 12:22:45;;;;;;;5.05;3.75;;;;;;;;;;12949365;23;20016;-85
2022/03/14 12:33:29;;;;;;;6.32;4.30;;;;;;;;;;12917132;23;20452;-83
2022/03/14 12:38:36;;;;;;;5.85;3.60;;;;;;;;;;12913300;23;19992;-83
2022/03/14 12:43:41;;;;;;;4.47;3.10;;;;;;;;;;12918745;23;20009;-84
2022/03/14 12:48:58;;;;;;;5.75;3.53;;;;;;;;;;12913425;23;20019;-83
2022/03/14 12:54:00;;;;;;;5.82;4.13;;;;;;;;;;12917087;23;20367;-82
2022/03/14 12:59:03;;;;;;;5.07;3.72;;;;;;;;;;12916897;23;20012;-84
2022/03/14 13:04:12;;;;;;;5.20;3.13;;;;;;;;;;12918243;23;20079;-83
2022/03/14 13:09:13;;;;;;;9.07;4.95;;;;;;;;;;12915017;23;20070;-83
2022/03/14 13:14:17;;;;;;;5.32;3.42;;;;;;;;;;12942232;23;20432;-83
2022/03/14 13:19:25;;;;;;;6.18;3.70;;;;;;;;;;12918796;23;20004;-83
2022/03/14 13:24:27;;;;;;;6.32;3.72;;;;;;;;;;12917791;23;20004;-83
2022/03/14 13:29:43;;;;;;;5.72;3.72;;;;;;;;;;12915364;23;20028;-82
2022/03/14 13:34:45;;;;;;;6.22;3.58;;;;;;;;;;12916142;23;20004;-82
2022/03/14 13:39:48;;;;;;;6.50;4.90;;;;;;;;;;12951820;23;20000;-83
2022/03/14 13:44:50;;;;;;;4.65;3.67;;;;;;;;;;12914222;23;20000;-82
2022/03/14 13:50:01;;;;;;;4.95;3.25;;;;;;;;;;12912243;23;20374;-83
2022/03/14 13:55:11;;;;;;;6.05;3.65;;;;;;;;;;12920116;23;20011;-83
2022/03/14 14:00:16;;;;;;;7.95;4.10;;;;;;;;;;12912809;23;20452;-83
2022/03/14 14:05:17;;;;;;;4.03;2.67;;;;;;;;;;12913717;23;20004;-84
2022/03/14 14:10:18;;;;;;;5.70;3.20;;;;;;;;;;12914837;23;20008;-82
2022/03/14 14:15:20;;;;;;;4.70;2.70;;;;;;;;;;12914145;23;20011;-82
2022/03/14 14:20:22;;;;;;;5.03;2.70;;;;;;;;;;12917711;23;20047;-81
2022/03/14 14:25:25;;;;;;;6.15;4.22;;;;;;;;;;12936748;22;20016;-80
2022/03/14 14:30:37;;;;;;;5.63;2.70;;;;;;;;;;12953706;22;20030;-80
2022/03/14 14:35:44;;;;;;;5.80;3.10;;;;;;;;;;12950700;23;20000;-79
2022/03/14 14:40:49;;;;;;;5.45;2.47;;;;;;;;;;12946182;23;20035;-81
2022/03/14 14:45:51;;;;;;;5.22;3.55;;;;;;;;;;12950450;23;20026;-79
2022/03/14 14:50:52;;;;;;;4.38;2.90;;;;;;;;;;12949936;23;20008;-79
2022/03/14 14:55:53;;;;;;;12.43;8.35;;;;;;;;;;12941526;23;20000;-80
2022/03/14 15:00:55;;;;;;;5.25;2.60;;;;;;;;;;12939670;23;20103;-80
2022/03/14 15:06:20;;;;;;;4.72;2.28;;;;;;;;;;12941187;23;20003;-84
2022/03/14 15:11:22;;;;;;;3.70;2.20;;;;;;;;;;12946466;22;20087;-81
2022/03/14 15:16:23;;;;;;;4.13;2.40;;;;;;;;;;12936053;23;20070;-80
2022/03/14 15:21:24;;;;;;;4.63;2.20;;;;;;;;;;12936848;23;20011;-81
2022/03/14 15:26:26;;;;;;;3.00;2.30;;;;;;;;;;12940960;23;20008;-81
2022/03/14 15:31:27;;;;;;;5.35;2.80;;;;;;;;;;12934957;23;20004;-81
2022/03/14 15:36:31;;;;;;;4.82;2.95;;;;;;;;;;12947551;23;20005;-81
2022/03/14 15:41:32;;;;;;;4.70;2.80;;;;;;;;;;12941780;23;20057;-80
2022/03/14 15:46:33;;;;;;;8.27;2.78;;;;;;;;;;12941354;23;20071;-80
2022/03/14 15:51:37;;;;;;;4.60;2.38;;;;;;;;;;12936259;23;20000;-81
2022/03/14 15:56:44;;;;;;;6.00;2.90;;;;;;;;;;12938061;23;20004;-80
2022/03/14 16:01:45;;;;;;;6.00;2.55;;;;;;;;;;12937592;23;20015;-80
2022/03/14 16:06:46;;;;;;;3.50;2.40;;;;;;;;;;12936583;23;20050;-80
2022/03/14 16:11:47;;;;;;;4.38;2.72;;;;;;;;;;12939100;23;20562;-80
2022/03/14 16:16:48;;;;;;;8.77;2.47;;;;;;;;;;12938999;23;20050;-80
2022/03/14 16:21:50;;;;;;;6.93;2.70;;;;;;;;;;12936771;23;20032;-81
2022/03/14 16:26:52;;;;;;;6.60;2.90;;;;;;;;;;12942601;23;20103;-81
2022/03/14 16:31:53;;;;;;;5.90;3.30;;;;;;;;;;12945872;23;20031;-82
2022/03/14 16:36:54;;;;;;;6.63;3.50;;;;;;;;;;12954934;22;20003;-81
2022/03/14 16:41:56;;;;;;;4.97;3.10;;;;;;;;;;12956776;22;20004;-81
2022/03/14 16:46:57;;;;;;;5.00;3.10;;;;;;;;;;12958205;23;20003;-80
2022/03/14 16:52:00;;;;;;;3.35;2.47;;;;;;;;;;12959198;23;20024;-80
2022/03/14 16:57:01;;;;;;;5.85;2.60;;;;;;;;;;12958722;23;20011;-79
2022/03/14 17:02:19;;;;;;;3.67;2.28;;;;;;;;;;12959255;23;20052;-82
2022/03/14 17:07:20;;;;;;;5.35;2.10;;;;;;;;;;12956235;23;20507;-81
2022/03/14 17:12:21;;;;;;;4.55;2.10;;;;;;;;;;12959096;22;20016;-81
2022/03/14 17:17:24;;;;;;;4.05;1.90;;;;;;;;;;12958927;23;20327;-81
2022/03/14 17:22:25;;;;;;;5.07;2.28;;;;;;;;;;12942141;23;20017;-78
2022/03/14 17:27:32;;;;;;;3.78;2.00;;;;;;;;;;12947599;23;20420;-86
2022/03/14 17:32:42;;;;;;;3.92;1.75;;;;;;;;;;12951687;22;20012;-84
2022/03/14 17:37:51;;;;;;;3.25;1.95;;;;;;;;;;12925071;23;20004;-84
2022/03/14 17:43:18;;;;;;;3.78;1.80;;;;;;;;;;12943480;23;20035;-85
2022/03/14 17:48:58;;;;;;;2.67;1.70;;;;;;;;;;12955680;22;20027;-85
2022/03/14 17:54:17;;;;;;;2.07;1.73;;;;;;;;;;12959737;23;19995;-85
2022/03/14 17:59:56;;;;;;;3.00;1.40;;;;;;;;;;12972443;22;20352;-84
2022/03/14 18:05:10;;;;;;;2.65;1.50;;;;;;;;;;12975991;23;20012;-83
2022/03/14 18:10:27;;;;;;;3.22;1.98;;;;;;;;;;12976022;23;20024;-84
2022/03/14 18:21:22;;;;;;;3.13;1.95;;;;;;;;;;12961897;23;20094;-84
2022/03/14 18:26:54;;;;;;;3.42;2.17;;;;;;;;;;12953281;22;20020;-83
2022/03/14 18:59:16;;;;;;;3.10;1.85;;;;;;;;;;12942540;22;20030;-85
2022/03/14 19:04:25;;;;;;;6.20;4.53;;;;;;;;;;12939908;23;20038;-85
2022/03/14 19:09:34;;;;;;;8.93;7.97;;;;;;;;;;12988852;22;20003;-84
2022/03/14 19:14:37;;;;;;;13.50;12.10;;;;;;;;;;13005542;22;20003;-84
2022/03/14 19:19:52;;;;;;;15.00;13.07;;;;;;;;;;13005372;22;20505;-84
2022/03/14 19:25:00;;;;;;;17.27;15.32;;;;;;;;;;13002106;22;20082;-85
2022/03/14 19:30:06;;;;;;;14.90;13.40;;;;;;;;;;13004531;22;19998;-85
2022/03/14 19:35:15;;;;;;;18.92;17.02;;;;;;;;;;13003300;22;20004;-87
2022/03/14 19:40:24;;;;;;;21.90;19.70;;;;;;;;;;13005574;22;20068;-85
2022/03/14 19:45:31;;;;;;;25.13;20.77;;;;;;;;;;13002516;22;20087;-85
2022/03/14 19:50:32;;;;;;;23.70;21.20;;;;;;;;;;13003577;22;20423;-85
2022/03/14 19:55:35;;;;;;;22.35;20.00;;;;;;;;;;13007238;22;20004;-85
2022/03/14 20:00:43;;;;;;;20.73;18.60;;;;;;;;;;12998782;22;20035;-85
2022/03/14 20:05:44;;;;;;;19.67;16.63;;;;;;;;;;13000598;22;20004;-84
2022/03/14 20:10:58;;;;;;;21.88;19.27;;;;;;;;;;13004337;22;20008;-85
2022/03/14 20:16:07;;;;;;;22.63;19.90;;;;;;;;;;13007695;22;20004;-85
2022/03/14 20:21:08;;;;;;;29.10;24.70;;;;;;;;;;13006757;22;20015;-85
2022/03/14 20:26:24;;;;;;;30.25;26.73;;;;;;;;;;13006434;22;20000;-85
